Time;durP1;ratioP1;P1;durP2;ratioP2;P2;SDS_P1;SDS_P2;PMS_P1;PMS_P2;Temp;Humidity;BMP_temperature;BMP_pressure;BME280_temperature;BME280_humidity;BME280_pressure;Samples;Min_cycle;Max_cycle;Signal;HPM_P1;HPM_P2
2022/11/29 00:01:23;;;;;;;305.80;33.53;;;8.70;99.90;;;;;;5037563;28;20124;-66
2022/11/29 00:03:50;;;;;;;266.65;33.13;;;8.70;99.90;;;;;;5042118;28;20045;-66
2022/11/29 00:06:19;;;;;;;401.85;35.72;;;8.70;99.90;;;;;;5034930;28;20729;-66
2022/11/29 00:08:46;;;;;;;299.15;34.22;;;8.70;99.90;;;;;;5037170;28;20393;-65
2022/11/29 00:12:11;;;;;;;240.90;31.52;;;8.70;99.90;;;;;;5037186;28;20511;-66
2022/11/29 00:14:00;;;;;;;392.65;34.97;;;8.70;99.90;;;;;;5039046;28;20497;-66
2022/11/29 00:16:26;;;;;;;271.52;32.60;;;8.70;99.90;;;;;;5037475;28;20036;-65
2022/11/29 00:18:52;;;;;;;355.02;33.83;;;8.70;99.90;;;;;;5045964;28;20037;-66
2022/11/29 00:21:17;;;;;;;341.38;35.35;;;8.70;99.90;;;;;;5040301;28;20482;-65
2022/11/29 00:23:43;;;;;;;324.23;31.00;;;8.70;99.90;;;;;;5044945;28;20090;-65
2022/11/29 00:26:09;;;;;;;269.40;33.22;;;8.80;99.90;;;;;;5042221;28;20184;-65
2022/11/29 00:28:35;;;;;;;322.95;36.00;;;8.70;99.90;;;;;;5042375;28;20037;-67
2022/11/29 00:31:21;;;;;;;247.80;33.67;;;8.70;99.90;;;;;;5044286;28;20042;-66
2022/11/29 00:33:48;;;;;;;285.55;35.15;;;8.80;99.90;;;;;;5045840;28;20114;-65
2022/11/29 00:36:14;;;;;;;299.45;34.35;;;8.80;99.90;;;;;;5042951;28;20378;-66
2022/11/29 00:38:40;;;;;;;337.77;36.40;;;8.70;99.90;;;;;;5039963;28;20080;-65
2022/11/29 00:41:06;;;;;;;428.40;41.75;;;8.80;99.90;;;;;;5046018;28;20041;-67
2022/11/29 00:43:32;;;;;;;359.77;37.47;;;8.80;99.90;;;;;;5041638;28;20076;-65
2022/11/29 00:45:58;;;;;;;377.58;39.38;;;8.80;99.90;;;;;;5045193;28;20534;-66
2022/11/29 00:48:24;;;;;;;406.67;41.90;;;8.80;99.90;;;;;;5040755;28;20048;-66
2022/11/29 00:50:49;;;;;;;512.72;41.33;;;8.70;99.90;;;;;;5042505;28;20496;-67
2022/11/29 00:53:15;;;;;;;331.77;39.90;;;8.70;99.90;;;;;;5041604;28;20036;-66
2022/11/29 00:55:43;;;;;;;508.20;43.88;;;8.70;99.90;;;;;;5042826;28;20499;-65
2022/11/29 00:58:09;;;;;;;320.92;38.50;;;8.80;99.90;;;;;;5039261;28;20052;-65
2022/11/29 01:00:35;;;;;;;401.23;39.95;;;8.70;99.90;;;;;;5041698;28;20041;-66
2022/11/29 01:03:01;;;;;;;360.77;40.13;;;8.80;99.90;;;;;;5045646;28;20084;-65
2022/11/29 01:05:26;;;;;;;445.98;41.13;;;8.80;99.90;;;;;;5042971;28;20427;-65
2022/11/29 01:07:52;;;;;;;470.90;40.35;;;8.70;99.90;;;;;;5040805;28;20037;-65
2022/11/29 01:10:18;;;;;;;333.10;36.50;;;8.80;99.90;;;;;;5043062;28;20435;-65
2022/11/29 01:12:44;;;;;;;371.38;38.90;;;8.70;99.90;;;;;;5038582;28;20043;-66
2022/11/29 01:15:10;;;;;;;388.38;38.65;;;8.70;99.90;;;;;;5043665;28;20452;-65
2022/11/29 01:17:37;;;;;;;343.88;37.65;;;8.70;99.90;;;;;;5040516;28;20033;-65
2022/11/29 01:20:05;;;;;;;359.27;38.20;;;8.70;99.90;;;;;;5044340;28;20083;-65
2022/11/29 01:22:31;;;;;;;254.05;35.05;;;8.60;99.90;;;;;;5044697;28;20041;-65
2022/11/29 01:24:56;;;;;;;275.50;37.22;;;8.60;99.90;;;;;;5044614;28;20417;-64
2022/11/29 01:27:22;;;;;;;272.05;34.47;;;8.60;99.90;;;;;;5045339;28;20083;-68
2022/11/29 01:29:48;;;;;;;448.00;39.45;;;8.60;99.90;;;;;;5058366;28;20102;-68
2022/11/29 01:32:13;;;;;;;289.90;35.53;;;8.70;99.90;;;;;;5064064;28;20347;-68
2022/11/29 01:34:39;;;;;;;293.30;35.08;;;8.60;99.90;;;;;;5055482;28;20176;-68
2022/11/29 01:37:05;;;;;;;266.88;34.25;;;8.60;99.90;;;;;;5059337;28;20033;-68
2022/11/29 01:39:31;;;;;;;299.38;34.83;;;8.50;99.90;;;;;;5061668;28;20122;-68
2022/11/29 01:41:56;;;;;;;357.00;36.80;;;8.60;99.90;;;;;;5060446;28;20025;-68
2022/11/29 01:44:22;;;;;;;351.23;38.28;;;8.50;99.90;;;;;;5060146;28;20129;-67
2022/11/29 01:46:48;;;;;;;324.70;38.30;;;8.50;99.90;;;;;;5059113;28;20037;-68
2022/11/29 01:49:15;;;;;;;376.98;38.35;;;8.50;99.90;;;;;;5057555;28;20041;-68
2022/11/29 01:51:44;;;;;;;323.70;37.75;;;8.50;99.90;;;;;;5061257;28;20052;-69
2022/11/29 01:54:11;;;;;;;259.40;35.65;;;8.50;99.90;;;;;;5054690;28;20049;-68
2022/11/29 01:56:38;;;;;;;334.65;37.88;;;8.50;99.90;;;;;;5052804;28;20064;-68
2022/11/29 01:59:09;;;;;;;335.25;36.85;;;8.50;99.90;;;;;;5061369;28;20093;-68
2022/11/29 02:01:36;;;;;;;443.88;40.72;;;8.50;99.90;;;;;;5045137;28;20456;-65
2022/11/29 02:04:03;;;;;;;409.05;37.83;;;8.50;99.90;;;;;;5036464;28;20195;-65
2022/11/29 02:06:29;;;;;;;399.65;37.72;;;8.50;99.90;;;;;;5039226;28;20092;-64
2022/11/29 02:08:55;;;;;;;373.35;37.15;;;8.40;99.90;;;;;;5045081;28;20132;-65
2022/11/29 02:11:26;;;;;;;313.25;35.85;;;8.50;99.90;;;;;;5038970;28;20120;-66
2022/11/29 02:14:05;;;;;;;374.80;38.50;;;8.50;99.90;;;;;;5043151;28;20441;-65
2022/11/29 02:16:52;;;;;;;329.70;35.58;;;8.50;99.90;;;;;;5045148;28;20121;-65
2022/11/29 02:19:33;;;;;;;434.45;37.97;;;8.40;99.90;;;;;;5040480;28;20064;-65
2022/11/29 02:22:09;;;;;;;476.88;38.40;;;8.40;99.90;;;;;;5036377;28;20110;-65
2022/11/29 02:24:55;;;;;;;421.15;36.50;;;8.40;99.90;;;;;;5043768;28;20033;-65
2022/11/29 02:27:52;;;;;;;414.67;33.45;;;8.40;99.90;;;;;;5038838;28;20036;-64
2022/11/29 02:30:33;;;;;;;380.00;32.47;;;8.40;99.90;;;;;;5037482;28;20053;-64
2022/11/29 02:33:25;;;;;;;326.38;32.05;;;8.40;99.90;;;;;;5043595;28;20053;-65
2022/11/29 02:36:00;;;;;;;406.50;33.03;;;8.30;99.90;;;;;;5040537;28;20492;-65
2022/11/29 02:39:07;;;;;;;300.25;30.50;;;8.30;99.90;;;;;;5042356;28;20033;-65
2022/11/29 02:41:58;;;;;;;256.27;30.15;;;8.30;99.90;;;;;;5036243;28;20029;-65
2022/11/29 02:44:42;;;;;;;291.05;29.40;;;8.20;99.90;;;;;;5041117;28;20392;-65
2022/11/29 02:47:19;;;;;;;237.90;29.50;;;8.20;99.90;;;;;;5038335;28;20076;-65
2022/11/29 02:50:16;;;;;;;237.93;27.92;;;8.20;99.90;;;;;;5041816;28;20158;-65
2022/11/29 02:53:07;;;;;;;261.90;29.02;;;8.20;99.90;;;;;;5033564;28;20582;-65
2022/11/29 02:55:42;;;;;;;254.43;28.85;;;8.10;99.90;;;;;;5038621;28;20103;-65
2022/11/29 02:58:13;;;;;;;;;;;8.10;99.90;;;;;;5041772;28;20048;-65
2022/11/29 03:00:50;;;;;;;214.95;26.13;;;8.10;99.90;;;;;;5038022;28;20007;-64
2022/11/29 03:03:56;;;;;;;182.02;24.90;;;8.00;99.90;;;;;;5036112;28;20199;-64
2022/11/29 03:06:31;;;;;;;245.27;28.05;;;8.00;99.90;;;;;;5040840;28;20126;-65
2022/11/29 03:09:38;;;;;;;331.75;29.92;;;8.00;99.90;;;;;;5042322;28;20528;-65
2022/11/29 03:12:04;;;;;;;193.52;26.42;;;8.00;99.90;;;;;;5018825;28;20057;-64
2022/11/29 03:14:49;;;;;;;253.45;29.52;;;7.90;99.90;;;;;;5040889;28;20033;-65
2022/11/29 03:17:39;;;;;;;183.15;27.63;;;7.90;99.90;;;;;;5035004;28;20075;-65
2022/11/29 03:20:29;;;;;;;193.27;27.10;;;8.00;99.90;;;;;;5060705;28;20037;-65
2022/11/29 03:23:17;;;;;;;143.27;25.55;;;7.90;99.90;;;;;;5038215;28;20033;-65
2022/11/29 03:25:55;;;;;;;221.30;29.40;;;8.00;99.90;;;;;;5038470;28;20951;-66
2022/11/29 03:28:29;;;;;;;254.25;30.60;;;8.00;99.90;;;;;;5039817;28;20037;-65
2022/11/29 03:31:13;;;;;;;238.88;28.23;;;7.90;99.90;;;;;;5039683;28;20433;-65
2022/11/29 03:33:50;;;;;;;233.23;28.80;;;7.90;99.90;;;;;;5040695;28;20140;-65
2022/11/29 03:36:28;;;;;;;251.63;30.40;;;7.90;99.90;;;;;;5039362;28;20049;-66
2022/11/29 03:38:59;;;;;;;206.45;26.92;;;7.90;99.90;;;;;;5037287;28;20497;-65
2022/11/29 03:41:45;;;;;;;174.27;26.10;;;7.90;99.90;;;;;;5036891;28;20041;-65
2022/11/29 03:44:23;;;;;;;252.15;29.83;;;7.90;99.90;;;;;;5041913;28;20128;-66
2022/11/29 03:47:21;;;;;;;236.65;30.55;;;7.90;99.90;;;;;;5037269;28;20428;-66
2022/11/29 03:50:05;;;;;;;271.92;31.77;;;7.80;99.90;;;;;;4983685;28;20073;-65
2022/11/29 03:52:42;;;;;;;305.58;33.65;;;7.80;99.90;;;;;;5040039;28;20037;-66
2022/11/29 03:55:07;;;;;;;214.10;28.23;;;7.80;99.90;;;;;;5038344;28;20041;-65
2022/11/29 03:57:54;;;;;;;254.55;29.63;;;7.90;99.90;;;;;;5040040;28;20508;-65
2022/11/29 04:00:20;;;;;;;219.63;29.52;;;7.80;99.90;;;;;;5036639;28;20049;-65
2022/11/29 04:03:17;;;;;;;190.85;28.83;;;7.80;99.90;;;;;;5041814;28;20102;-65
2022/11/29 04:06:19;;;;;;;158.32;27.17;;;7.80;99.90;;;;;;5040422;28;20059;-66
2022/11/29 04:09:22;;;;;;;157.85;25.67;;;7.80;99.90;;;;;;5042440;28;20413;-65
2022/11/29 04:12:26;;;;;;;219.20;26.67;;;7.80;99.90;;;;;;5030082;28;20402;-65
2022/11/29 04:15:01;;;;;;;354.90;34.50;;;7.70;99.90;;;;;;5000084;28;20044;-65
2022/11/29 04:17:48;;;;;;;380.35;34.17;;;7.70;99.90;;;;;;5032767;28;20116;-65
2022/11/29 04:20:41;;;;;;;304.23;30.67;;;7.80;99.90;;;;;;5038386;28;20049;-65
2022/11/29 04:23:34;;;;;;;235.52;31.27;;;7.70;99.90;;;;;;5039256;28;20464;-65
2022/11/29 04:26:28;;;;;;;360.65;36.13;;;7.70;99.90;;;;;;5038149;28;20060;-65
2022/11/29 04:29:31;;;;;;;226.60;29.75;;;7.80;99.90;;;;;;5038701;28;20496;-65
2022/11/29 04:32:20;;;;;;;310.30;33.00;;;7.70;99.90;;;;;;5037428;28;20493;-65
2022/11/29 04:35:10;;;;;;;207.75;28.85;;;7.70;99.90;;;;;;5043093;28;20508;-65
2022/11/29 04:37:41;;;;;;;257.77;30.55;;;7.70;99.90;;;;;;5037611;28;20539;-65
2022/11/29 04:40:25;;;;;;;313.85;31.95;;;7.70;99.90;;;;;;5041116;28;20046;-65
2022/11/29 04:43:19;;;;;;;218.63;28.80;;;7.70;99.90;;;;;;5036917;28;20067;-66
2022/11/29 04:46:14;;;;;;;220.48;29.33;;;7.60;99.90;;;;;;5034161;28;20322;-66
2022/11/29 04:49:16;;;;;;;183.75;26.85;;;7.70;99.90;;;;;;5019569;28;20045;-65
2022/11/29 04:51:56;;;;;;;291.77;29.95;;;7.70;99.90;;;;;;5043168;28;20124;-65
2022/11/29 04:54:34;;;;;;;316.98;29.73;;;7.60;99.90;;;;;;5038064;28;20413;-65
2022/11/29 04:57:13;;;;;;;341.45;33.38;;;7.70;99.90;;;;;;5038070;28;20245;-65
2022/11/29 05:00:05;;;;;;;267.75;27.65;;;7.60;99.90;;;;;;5039828;28;20044;-66
2022/11/29 05:02:39;;;;;;;254.80;29.33;;;7.60;99.90;;;;;;5039060;28;20072;-65
2022/11/29 05:05:24;;;;;;;252.32;29.35;;;7.60;99.90;;;;;;5039993;28;20044;-65
2022/11/29 05:08:23;;;;;;;230.17;26.53;;;7.60;99.90;;;;;;5044907;28;20084;-65
2022/11/29 05:11:01;;;;;;;243.13;29.30;;;7.70;99.90;;;;;;5037321;28;20693;-64
2022/11/29 05:13:45;;;;;;;313.80;31.85;;;7.70;99.90;;;;;;5044411;28;20102;-65
2022/11/29 05:16:48;;;;;;;339.92;31.75;;;7.70;99.90;;;;;;5043062;28;20049;-65
2022/11/29 05:19:18;;;;;;;299.85;28.95;;;7.70;99.90;;;;;;5041614;28;20033;-66
2022/11/29 05:22:25;;;;;;;266.95;28.17;;;7.70;99.90;;;;;;5041927;28;20044;-65
2022/11/29 05:25:28;;;;;;;301.15;30.13;;;7.70;99.90;;;;;;5000953;28;20098;-65
2022/11/29 05:28:06;;;;;;;249.10;30.10;;;7.70;99.90;;;;;;5038118;28;20041;-66
2022/11/29 05:31:13;;;;;;;376.70;32.08;;;7.70;99.90;;;;;;5037962;28;20099;-65
2022/11/29 05:34:17;;;;;;;324.20;30.75;;;7.60;99.90;;;;;;5038488;28;20132;-65
2022/11/29 05:37:01;;;;;;;281.42;32.03;;;7.60;99.90;;;;;;5039201;28;20049;-66
2022/11/29 05:39:48;;;;;;;185.85;27.50;;;7.60;99.90;;;;;;5037529;28;20271;-65
2022/11/29 05:42:33;;;;;;;217.32;28.73;;;7.70;99.90;;;;;;5039447;28;20045;-65
2022/11/29 05:45:15;;;;;;;220.45;29.48;;;7.60;99.90;;;;;;5037993;28;20053;-65
2022/11/29 05:48:06;;;;;;;390.83;35.70;;;7.60;99.90;;;;;;5040117;28;20118;-66
2022/11/29 05:50:41;;;;;;;241.50;29.02;;;7.60;99.90;;;;;;5044221;28;20095;-65
2022/11/29 05:53:15;;;;;;;268.27;29.08;;;7.60;99.90;;;;;;5040055;28;20044;-66
2022/11/29 05:56:02;;;;;;;316.25;32.15;;;7.60;99.90;;;;;;5041792;28;20076;-65
2022/11/29 05:58:39;;;;;;;386.73;35.33;;;7.60;99.90;;;;;;5046077;28;20472;-65
2022/11/29 06:01:26;;;;;;;265.40;30.92;;;7.60;99.90;;;;;;5035770;28;20041;-65
2022/11/29 06:04:09;;;;;;;265.40;29.75;;;7.60;99.90;;;;;;5044064;28;20442;-65
2022/11/29 06:06:47;;;;;;;306.60;32.25;;;7.60;99.90;;;;;;5045495;28;20110;-65
2022/11/29 06:09:18;;;;;;;373.08;33.70;;;7.60;99.90;;;;;;5037604;28;20040;-65
2022/11/29 06:11:53;;;;;;;319.05;32.08;;;7.60;99.90;;;;;;5041035;28;20064;-65
2022/11/29 06:14:25;;;;;;;304.05;32.30;;;7.60;99.90;;;;;;5026414;28;20108;-65
2022/11/29 06:17:08;;;;;;;291.23;32.72;;;7.60;99.90;;;;;;5039845;28;20037;-66
2022/11/29 06:19:55;;;;;;;291.40;32.42;;;7.60;99.90;;;;;;5039575;28;20036;-65
2022/11/29 06:22:41;;;;;;;359.52;35.08;;;7.50;99.90;;;;;;5038227;28;20059;-66
2022/11/29 06:25:47;;;;;;;346.98;33.50;;;7.60;99.90;;;;;;5035210;28;20091;-66
2022/11/29 06:28:18;;;;;;;292.48;32.05;;;7.60;99.90;;;;;;5033427;28;20128;-64
2022/11/29 06:31:00;;;;;;;313.13;33.45;;;7.60;99.90;;;;;;5040968;28;20590;-64
2022/11/29 06:33:56;;;;;;;243.05;29.02;;;7.60;99.90;;;;;;5043602;28;20049;-65
2022/11/29 06:36:27;;;;;;;;;;;7.60;99.90;;;;;;5026258;28;20049;-65
2022/11/29 06:38:53;;;;;;;215.05;29.30;;;7.50;99.90;;;;;;5045726;28;20342;-66
2022/11/29 06:41:21;;;;;;;269.48;30.98;;;7.50;99.90;;;;;;5041825;28;20041;-66
2022/11/29 06:43:47;;;;;;;383.00;35.30;;;7.50;99.90;;;;;;5038974;28;20295;-65
2022/11/29 06:46:46;;;;;;;264.80;28.33;;;7.50;99.90;;;;;;5037773;28;20084;-65
2022/11/29 06:49:17;;;;;;;293.75;30.77;;;7.50;99.90;;;;;;5033173;28;20049;-65
2022/11/29 06:51:58;;;;;;;268.83;29.92;;;7.60;99.90;;;;;;5038589;28;20500;-66
2022/11/29 06:54:33;;;;;;;342.25;33.85;;;7.50;99.90;;;;;;5038916;28;20037;-65
2022/11/29 06:57:16;;;;;;;229.65;27.30;;;7.50;99.90;;;;;;5036739;28;20029;-65
2022/11/29 06:59:49;;;;;;;274.15;28.65;;;7.40;99.90;;;;;;5038047;28;22121;-65
2022/11/29 07:02:41;;;;;;;209.18;26.58;;;7.40;99.90;;;;;;5038750;28;20492;-65
2022/11/29 07:05:26;;;;;;;219.20;26.70;;;7.40;99.90;;;;;;5041988;28;20124;-66
2022/11/29 07:07:53;;;;;;;;;;;7.30;99.90;;;;;;5041132;28;20049;-65
2022/11/29 07:10:20;;;;;;;173.18;23.75;;;7.30;99.90;;;;;;5039524;28;19947;-65
2022/11/29 07:12:47;;;;;;;165.27;24.38;;;7.30;99.90;;;;;;5041968;28;20033;-65
2022/11/29 07:15:18;;;;;;;221.60;26.63;;;7.30;99.90;;;;;;5043743;28;20051;-66
2022/11/29 07:18:03;;;;;;;256.33;27.80;;;7.20;99.90;;;;;;5058255;28;20068;-64
2022/11/29 07:21:01;;;;;;;137.55;23.33;;;7.30;99.90;;;;;;5043660;28;20033;-64
2022/11/29 07:23:33;;;;;;;207.10;27.50;;;7.20;99.90;;;;;;5041315;28;20128;-64
2022/11/29 07:26:23;;;;;;;308.90;32.55;;;7.20;99.90;;;;;;5040983;28;20052;-66
2022/11/29 07:29:06;;;;;;;267.05;29.20;;;7.30;99.90;;;;;;5038485;28;20041;-65
2022/11/29 07:31:44;;;;;;;189.90;26.58;;;7.30;99.90;;;;;;5042407;28;20037;-64
2022/11/29 07:34:18;;;;;;;218.82;30.02;;;7.20;99.90;;;;;;5039443;28;20057;-65
2022/11/29 07:36:57;;;;;;;225.75;29.70;;;7.30;99.90;;;;;;5041045;28;20045;-66
2022/11/29 07:39:40;;;;;;;186.75;28.23;;;7.20;99.90;;;;;;5039638;28;20032;-65
2022/11/29 07:42:12;;;;;;;266.23;30.92;;;7.30;99.90;;;;;;5040308;28;20045;-65
2022/11/29 07:44:47;;;;;;;166.55;26.15;;;7.20;99.90;;;;;;5044093;28;20133;-65
2022/11/29 07:47:12;;;;;;;118.68;24.75;;;7.30;99.90;;;;;;5043821;28;20053;-65
2022/11/29 07:49:38;;;;;;;114.32;25.23;;;7.20;99.90;;;;;;5040397;28;20326;-64
2022/11/29 07:52:04;;;;;;;226.95;29.25;;;7.20;99.90;;;;;;5041601;28;20051;-64
2022/11/29 07:54:30;;;;;;;185.68;28.13;;;7.30;99.90;;;;;;5035726;28;20049;-65
2022/11/29 07:56:55;;;;;;;121.43;24.88;;;7.30;99.90;;;;;;5042685;28;20040;-65
2022/11/29 07:59:21;;;;;;;236.68;31.48;;;7.30;99.90;;;;;;5039570;28;20041;-66
2022/11/29 08:01:47;;;;;;;139.77;25.77;;;7.30;99.90;;;;;;5038837;28;20152;-65
2022/11/29 08:04:13;;;;;;;192.30;28.55;;;7.30;99.90;;;;;;5042608;28;20044;-65
2022/11/29 08:06:38;;;;;;;234.75;30.65;;;7.30;99.90;;;;;;5041916;28;20044;-65
2022/11/29 08:09:05;;;;;;;167.70;26.88;;;7.30;99.90;;;;;;5040294;28;20131;-65
2022/11/29 08:11:31;;;;;;;120.20;25.83;;;7.40;99.90;;;;;;5041605;28;20041;-65
2022/11/29 08:14:02;;;;;;;174.55;28.70;;;7.30;99.90;;;;;;5038479;28;20038;-65
2022/11/29 08:16:28;;;;;;;162.50;29.30;;;7.40;99.90;;;;;;5041450;28;20051;-66
2022/11/29 08:18:54;;;;;;;238.70;32.53;;;7.40;99.90;;;;;;5041902;28;20133;-64
2022/11/29 08:21:20;;;;;;;183.73;29.05;;;7.40;99.90;;;;;;5043388;28;20543;-65
2022/11/29 08:23:47;;;;;;;137.32;26.50;;;7.40;99.90;;;;;;5056025;28;20435;-65
2022/11/29 08:26:14;;;;;;;252.15;31.90;;;7.40;99.90;;;;;;5025856;28;20044;-65
2022/11/29 08:28:40;;;;;;;80.93;22.20;;;7.50;99.90;;;;;;5038626;28;20060;-65
2022/11/29 08:31:09;;;;;;;158.93;26.30;;;7.50;99.90;;;;;;5042487;28;20041;-65
2022/11/29 08:33:41;;;;;;;230.73;31.90;;;7.50;99.90;;;;;;5041347;28;20087;-65
2022/11/29 08:36:09;;;;;;;198.07;28.98;;;7.60;99.90;;;;;;5040431;28;20042;-65
2022/11/29 08:38:34;;;;;;;145.43;25.77;;;7.50;99.90;;;;;;5046915;28;20080;-64
2022/11/29 08:41:06;;;;;;;101.80;23.05;;;7.50;99.90;;;;;;5044605;28;20075;-66
2022/11/29 08:43:32;;;;;;;99.50;23.35;;;7.50;99.90;;;;;;5040657;28;20103;-65
2022/11/29 08:45:58;;;;;;;126.30;25.02;;;7.60;99.90;;;;;;5038806;28;20081;-64
2022/11/29 08:48:24;;;;;;;128.50;26.08;;;7.60;99.90;;;;;;5045677;28;20128;-65
2022/11/29 08:50:51;;;;;;;69.75;20.42;;;7.50;99.90;;;;;;5038970;28;20112;-65
2022/11/29 08:56:02;;;;;;;79.45;21.77;;;7.70;99.90;;;;;;5043933;28;20045;-64
2022/11/29 08:58:28;;;;;;;150.30;25.88;;;7.70;99.90;;;;;;5046713;28;20045;-65
2022/11/29 09:00:54;;;;;;;115.25;24.02;;;7.70;99.90;;;;;;5045823;28;20435;-65
2022/11/29 09:06:12;;;;;;;63.72;19.65;;;7.80;99.90;;;;;;5044238;28;20495;-65
2022/11/29 09:08:38;;;;;;;73.40;20.33;;;7.80;99.90;;;;;;5045804;28;20041;-65
2022/11/29 09:11:12;;;;;;;66.13;19.83;;;7.80;99.90;;;;;;5045918;28;20337;-65
2022/11/29 09:13:40;;;;;;;72.50;20.27;;;7.90;99.90;;;;;;5041182;28;20036;-65
2022/11/29 09:16:07;;;;;;;63.28;18.95;;;7.80;99.90;;;;;;5045094;28;20047;-65
2022/11/29 09:18:33;;;;;;;81.63;21.08;;;7.90;99.90;;;;;;5048379;28;20108;-65
2022/11/29 09:20:58;;;;;;;59.67;18.42;;;7.90;99.90;;;;;;5043437;28;20041;-65
2022/11/29 09:23:24;;;;;;;108.57;22.55;;;7.90;99.90;;;;;;5043390;28;20037;-65
2022/11/29 09:25:50;;;;;;;48.90;18.33;;;7.90;99.90;;;;;;5043157;28;20037;-66
2022/11/29 09:28:15;;;;;;;58.45;18.90;;;7.90;99.90;;;;;;5039330;28;20037;-65
2022/11/29 09:30:41;;;;;;;102.05;21.75;;;8.00;99.90;;;;;;5043615;28;21075;-65
2022/11/29 09:33:07;;;;;;;62.72;19.05;;;8.00;99.90;;;;;;5047157;28;20052;-65
2022/11/29 09:35:33;;;;;;;51.45;17.17;;;8.00;99.90;;;;;;5042976;28;20045;-64
2022/11/29 09:37:59;;;;;;;40.75;16.25;;;8.00;99.90;;;;;;5047836;28;20555;-64
2022/11/29 09:40:47;;;;;;;46.70;16.83;;;8.10;99.90;;;;;;5044935;28;20124;-65
2022/11/29 09:43:38;;;;;;;50.85;17.25;;;8.20;99.90;;;;;;5040020;28;20051;-64
2022/11/29 09:46:20;;;;;;;65.95;19.17;;;8.20;99.90;;;;;;5045461;28;20511;-65
2022/11/29 09:49:28;;;;;;;53.97;16.73;;;8.20;99.90;;;;;;5044696;28;20040;-65
2022/11/29 09:51:57;;;;;;;56.05;17.65;;;8.20;99.90;;;;;;5039456;28;20071;-65
2022/11/29 09:54:29;;;;;;;41.72;15.95;;;8.20;99.90;;;;;;5047925;28;20080;-65
2022/11/29 09:56:56;;;;;;;40.03;15.10;;;8.20;99.90;;;;;;5041874;28;20533;-65
2022/11/29 09:59:32;;;;;;;47.65;16.35;;;8.20;99.90;;;;;;5040347;28;20049;-65
2022/11/29 10:01:58;;;;;;;35.95;14.10;;;8.20;99.90;;;;;;5044520;28;20106;-65
2022/11/29 10:04:31;;;;;;;35.03;13.80;;;8.30;99.90;;;;;;5046252;28;20424;-65
2022/11/29 10:07:04;;;;;;;45.45;15.02;;;8.20;99.90;;;;;;5042714;28;20454;-65
2022/11/29 10:09:43;;;;;;;51.83;16.17;;;8.20;99.90;;;;;;5043074;28;20392;-65
2022/11/29 10:12:30;;;;;;;41.83;17.35;;;8.20;99.90;;;;;;5039903;28;20440;-65
2022/11/29 10:14:59;;;;;;;38.17;14.88;;;8.20;99.90;;;;;;5038877;28;20452;-65
2022/11/29 10:17:37;;;;;;;33.97;14.30;;;8.20;99.90;;;;;;5039445;28;20508;-65
2022/11/29 10:20:28;;;;;;;33.72;14.15;;;8.30;99.90;;;;;;5025150;28;20603;-66
2022/11/29 10:23:08;;;;;;;51.53;14.65;;;8.20;99.90;;;;;;5029444;28;20053;-65
2022/11/29 10:25:42;;;;;;;34.40;14.10;;;8.30;99.90;;;;;;5040626;28;20072;-65
2022/11/29 10:28:14;;;;;;;37.40;13.18;;;8.20;99.90;;;;;;5040963;28;20417;-65
2022/11/29 10:30:41;;;;;;;41.38;14.63;;;8.20;99.90;;;;;;5041793;28;20051;-65
2022/11/29 10:33:48;;;;;;;29.42;13.27;;;8.20;99.90;;;;;;5040092;28;20110;-64
2022/11/29 10:36:32;;;;;;;35.67;13.15;;;8.20;99.90;;;;;;5039140;28;20133;-65
2022/11/29 10:39:05;;;;;;;33.05;12.93;;;8.20;99.90;;;;;;5040219;28;20356;-65
2022/11/29 10:41:31;;;;;;;30.33;12.07;;;8.20;99.90;;;;;;5041112;28;20037;-65
2022/11/29 10:43:59;;;;;;;34.10;12.95;;;8.20;99.90;;;;;;5038487;28;20049;-65
2022/11/29 10:46:33;;;;;;;30.77;12.82;;;8.30;99.90;;;;;;5026498;28;20042;-65
2022/11/29 10:49:09;;;;;;;31.70;11.95;;;8.20;99.90;;;;;;5037737;28;20133;-65
2022/11/29 10:51:35;;;;;;;29.88;12.02;;;8.20;99.90;;;;;;5045253;28;20037;-65
2022/11/29 10:54:16;;;;;;;28.38;11.50;;;8.20;99.90;;;;;;5042991;28;20107;-65
2022/11/29 10:56:43;;;;;;;24.55;11.05;;;8.20;99.90;;;;;;5042570;28;20124;-65
2022/11/29 10:59:19;;;;;;;33.70;11.93;;;8.20;99.90;;;;;;5039380;28;20041;-66
2022/11/29 11:01:45;;;;;;;35.45;11.07;;;8.30;99.90;;;;;;5041950;28;20116;-65
2022/11/29 11:04:25;;;;;;;25.00;10.73;;;8.30;99.90;;;;;;5042670;28;20116;-66
2022/11/29 11:06:55;;;;;;;22.60;10.20;;;8.40;99.90;;;;;;5037396;28;20127;-65
2022/11/29 11:09:41;;;;;;;30.13;11.95;;;8.40;99.90;;;;;;5035416;28;20029;-65
2022/11/29 11:12:18;;;;;;;30.67;11.20;;;8.40;99.90;;;;;;5041529;28;20112;-65
2022/11/29 11:14:45;;;;;;;25.02;9.88;;;8.50;99.90;;;;;;5039395;28;20127;-65
2022/11/29 11:17:24;;;;;;;22.08;10.45;;;8.50;99.90;;;;;;5035763;28;20131;-66
2022/11/29 11:19:56;;;;;;;21.33;9.80;;;8.50;99.90;;;;;;5042269;28;20041;-65
2022/11/29 11:22:23;;;;;;;23.35;9.48;;;8.60;99.90;;;;;;5036642;28;20087;-66
2022/11/29 11:24:58;;;;;;;15.90;8.63;;;8.60;99.90;;;;;;5039297;28;20084;-65
2022/11/29 11:27:32;;;;;;;16.35;9.10;;;8.80;99.90;;;;;;5037692;28;20084;-66
2022/11/29 11:29:59;;;;;;;19.02;8.98;;;8.80;99.90;;;;;;5036881;28;20045;-65
2022/11/29 11:32:25;;;;;;;20.52;9.68;;;8.90;99.90;;;;;;5036143;28;20508;-65
2022/11/29 11:34:56;;;;;;;21.20;9.70;;;8.90;99.90;;;;;;5036783;28;20068;-66
2022/11/29 11:37:28;;;;;;;20.90;10.18;;;8.90;99.90;;;;;;5035532;28;20045;-65
2022/11/29 11:40:15;;;;;;;20.50;9.48;;;9.00;99.90;;;;;;5042117;28;20037;-65
2022/11/29 11:42:41;;;;;;;21.42;10.00;;;9.10;99.90;;;;;;5039431;28;20438;-65
2022/11/29 11:45:10;;;;;;;16.35;8.65;;;9.00;99.90;;;;;;5041706;28;20055;-65
2022/11/29 11:47:44;;;;;;;18.38;8.88;;;9.00;99.90;;;;;;5042031;28;20048;-66
2022/11/29 11:50:15;;;;;;;;;;;9.00;99.90;;;;;;5039432;28;20037;-65
2022/11/29 11:52:52;;;;;;;20.35;8.90;;;9.00;99.90;;;;;;5041473;28;19925;-65
2022/11/29 11:55:20;;;;;;;17.88;8.32;;;9.00;99.90;;;;;;5039022;28;20041;-65
2022/11/29 11:58:12;;;;;;;28.30;9.88;;;9.00;99.90;;;;;;5036657;28;20041;-65
2022/11/29 12:00:51;;;;;;;26.60;8.52;;;9.00;99.90;;;;;;5011406;28;20140;-65
2022/11/29 12:03:51;;;;;;;24.10;8.15;;;9.10;99.90;;;;;;5034185;28;21334;-65
2022/11/29 12:06:35;;;;;;;23.30;8.40;;;9.10;99.90;;;;;;5038547;28;20044;-65
2022/11/29 12:09:18;;;;;;;22.88;8.50;;;9.20;99.90;;;;;;5040779;28;20044;-65
2022/11/29 12:12:02;;;;;;;25.35;8.25;;;9.20;99.90;;;;;;5039482;28;20068;-65
2022/11/29 12:15:12;;;;;;;23.42;8.27;;;9.20;99.90;;;;;;5043042;28;20113;-65
2022/11/29 12:18:11;;;;;;;24.02;9.30;;;9.30;99.90;;;;;;5043880;28;20094;-65
2022/11/29 12:20:44;;;;;;;26.40;8.65;;;9.30;99.90;;;;;;5046751;28;20124;-65
2022/11/29 12:23:13;;;;;;;23.35;8.95;;;9.30;99.90;;;;;;5039850;28;20045;-65
2022/11/29 12:25:49;;;;;;;26.67;9.98;;;9.30;99.90;;;;;;5048939;28;20055;-66
2022/11/29 12:28:17;;;;;;;22.42;8.57;;;9.40;99.90;;;;;;5055482;28;20060;-65
2022/11/29 12:31:29;;;;;;;28.67;9.70;;;9.30;99.90;;;;;;5045181;28;20532;-65
2022/11/29 12:34:00;;;;;;;27.67;9.23;;;9.30;99.90;;;;;;5016583;28;20047;-65
2022/11/29 12:36:32;;;;;;;23.25;8.70;;;9.30;99.90;;;;;;5041444;28;20447;-66
2022/11/29 12:39:26;;;;;;;21.70;8.88;;;9.30;99.90;;;;;;5038862;28;20060;-66
2022/11/29 12:42:10;;;;;;;26.20;10.13;;;9.30;99.90;;;;;;5048433;28;20084;-67
2022/11/29 12:44:57;;;;;;;30.15;9.18;;;9.40;99.90;;;;;;5041271;28;20068;-65
2022/11/29 12:47:37;;;;;;;31.63;10.15;;;9.40;99.90;;;;;;5042378;28;20349;-65
2022/11/29 12:50:09;;;;;;;30.30;10.43;;;9.30;99.90;;;;;;5044244;28;20041;-66
2022/11/29 12:52:47;;;;;;;25.23;10.07;;;9.30;99.90;;;;;;5043971;28;20048;-65
2022/11/29 12:55:42;;;;;;;25.52;10.43;;;9.40;99.90;;;;;;5043508;28;20037;-68
2022/11/29 12:58:17;;;;;;;30.88;10.18;;;9.40;99.90;;;;;;5047562;28;20041;-68
2022/11/29 13:00:48;;;;;;;;;;;9.30;99.90;;;;;;5053009;28;20049;-68
2022/11/29 13:03:37;;;;;;;29.05;10.40;;;9.40;99.90;;;;;;5044824;28;19921;-68
2022/11/29 13:06:27;;;;;;;24.60;9.70;;;9.40;99.90;;;;;;5049388;28;20504;-65
2022/11/29 13:09:14;;;;;;;23.48;10.60;;;9.50;99.90;;;;;;5044027;28;20045;-65
2022/11/29 13:11:46;;;;;;;31.17;11.32;;;9.50;99.90;;;;;;5042299;28;20029;-66
2022/11/29 13:14:25;;;;;;;32.92;11.50;;;9.60;99.90;;;;;;5040383;28;20493;-65
2022/11/29 13:17:03;;;;;;;29.00;10.20;;;9.50;99.90;;;;;;5043660;28;20094;-66
2022/11/29 13:19:54;;;;;;;31.67;11.20;;;9.50;99.90;;;;;;5037881;28;20034;-66
2022/11/29 13:22:31;;;;;;;22.65;10.45;;;9.60;99.90;;;;;;5045260;28;20124;-67
2022/11/29 13:25:02;;;;;;;34.65;10.55;;;9.50;99.90;;;;;;5039502;28;20087;-65
2022/11/29 13:27:32;;;;;;;32.58;12.02;;;9.50;99.90;;;;;;5042595;28;20381;-65